Time;durP1;ratioP1;P1;durP2;ratioP2;P2;SDS_P1;SDS_P2;PMS_P1;PMS_P2;Temp;Humidity;BMP_temperature;BMP_pressure;BME280_temperature;BME280_humidity;BME280_pressure;Samples;Min_cycle;Max_cycle;Signal;HPM_P1;HPM_P2
2022/08/31 00:06:10;;;;;;;6.10;2.72;;;;;;;16.66;75.39;100753.34;2148894;82;31497;-73
2022/08/31 00:09:12;;;;;;;2.90;2.40;;;;;;;16.68;75.38;100749.20;2121110;83;33097;-77
2022/08/31 00:12:13;;;;;;;3.52;2.45;;;;;;;16.68;75.47;100750.05;2115184;83;29341;-78
2022/08/31 00:15:19;;;;;;;3.65;2.40;;;;;;;16.68;75.48;100750.05;2130179;83;27659;-76
2022/08/31 00:18:23;;;;;;;3.75;2.27;;;;;;;16.68;75.51;100751.41;2145437;82;29485;-75
2022/08/31 00:21:25;;;;;;;3.65;2.92;;;;;;;16.70;75.60;100745.91;2111375;84;31018;-69
2022/08/31 00:24:27;;;;;;;5.87;2.27;;;;;;;16.71;75.77;100743.09;2096198;84;34122;-70
2022/08/31 00:27:30;;;;;;;4.17;2.60;;;;;;;16.73;75.79;100740.77;2110948;84;30487;-77
2022/08/31 00:30:33;;;;;;;4.92;2.65;;;;;;;16.74;75.83;100728.97;2111447;84;27689;-71
2022/08/31 00:33:35;;;;;;;4.17;2.58;;;;;;;16.75;75.78;100738.83;2111256;84;29064;-69
2022/08/31 00:36:37;;;;;;;5.08;2.42;;;;;;;16.74;75.89;100738.44;2135697;82;32298;-73
2022/08/31 00:39:38;;;;;;;5.22;2.40;;;;;;;16.75;75.94;100734.77;2145627;83;33333;-73
2022/08/31 00:42:40;;;;;;;5.00;2.60;;;;;;;16.74;76.07;100736.59;2129858;83;29445;-76
2022/08/31 00:45:41;;;;;;;3.37;2.83;;;;;;;16.75;76.10;100738.33;2145302;83;27598;-77
2022/08/31 00:48:59;;;;;;;4.60;2.60;;;;;;;16.74;76.03;100731.67;2145756;83;29867;-76
2022/08/31 00:52:14;;;;;;;8.08;3.52;;;;;;;16.76;76.01;100733.80;2130115;83;31391;-74
2022/08/31 00:55:20;;;;;;;4.25;2.50;;;;;;;16.75;75.99;100725.30;2129368;82;33762;-78
2022/08/31 00:58:22;;;;;;;5.05;2.80;;;;;;;16.71;75.93;100726.00;2121687;83;29519;-75
2022/08/31 01:01:23;;;;;;;3.40;3.10;;;;;;;16.69;75.90;100730.15;2092848;83;27689;-76
2022/08/31 01:04:25;;;;;;;3.98;2.87;;;;;;;16.70;75.88;100733.73;2106911;84;29096;-78
2022/08/31 01:07:26;;;;;;;3.60;2.75;;;;;;;16.69;75.89;100731.50;2106830;84;31410;-82
2022/08/31 01:10:34;;;;;;;4.85;2.90;;;;;;;16.69;75.99;100728.80;2106997;84;34075;-78
2022/08/31 01:13:36;;;;;;;5.17;3.12;;;;;;;16.70;76.04;100731.03;2103768;84;29343;-72
2022/08/31 01:16:45;;;;;;;3.92;2.27;;;;;;;16.69;76.06;100728.80;2089639;84;28314;-75
2022/08/31 01:20:00;;;;;;;5.78;2.70;;;;;;;16.68;76.08;100732.97;2107789;83;28664;-76
2022/08/31 01:23:26;;;;;;;5.78;2.65;;;;;;;16.64;76.05;100730.09;2126554;83;31341;-72
2022/08/31 01:26:30;;;;;;;3.02;2.47;;;;;;;16.62;76.04;100725.27;2145942;82;33365;-74
2022/08/31 01:29:31;;;;;;;4.20;3.00;;;;;;;16.60;76.12;100723.14;2145789;82;29333;-70
2022/08/31 01:32:33;;;;;;;3.72;2.45;;;;;;;16.58;76.21;100725.08;2145940;82;27835;-75
2022/08/31 01:35:35;;;;;;;7.25;2.20;;;;;;;16.55;76.22;100722.97;2145567;82;28869;-72
2022/08/31 01:38:37;;;;;;;5.17;2.30;;;;;;;16.53;76.24;100728.11;2127347;83;31090;-77
2022/08/31 01:41:42;;;;;;;3.35;2.65;;;;;;;16.51;76.29;100727.34;2145531;83;33392;-70
2022/08/31 01:44:43;;;;;;;7.00;2.50;;;;;;;16.48;76.29;100731.13;2146230;83;29415;-78
2022/08/31 01:47:45;;;;;;;4.70;2.92;;;;;;;16.46;76.33;100734.42;2127054;83;27703;-79
2022/08/31 01:50:47;;;;;;;5.65;2.75;;;;;;;16.44;76.43;100732.80;2103481;84;29937;-79
2022/08/31 01:53:50;;;;;;;4.53;3.70;;;;;;;16.40;76.43;100730.77;2103529;84;30941;-82
2022/08/31 01:56:51;;;;;;;5.87;3.25;;;;;;;16.38;76.45;100739.00;2103817;84;32972;-80
2022/08/31 01:59:54;;;;;;;6.58;3.10;;;;;;;16.35;76.58;100743.25;2098030;83;30690;-82
2022/08/31 02:03:01;;;;;;;2.98;2.60;;;;;;;16.32;76.69;100740.75;2079402;85;27789;-72
2022/08/31 02:06:08;;;;;;;;;;;;;;;16.29;76.67;100736.92;2082101;85;28722;-72
2022/08/31 02:09:10;;;;;;;3.75;2.45;;;;;;;16.27;76.80;100736.62;2079487;85;31850;-81
2022/08/31 02:12:15;;;;;;;4.45;3.17;;;;;;;16.22;76.84;100725.63;2077903;85;32975;-73
2022/08/31 02:15:17;;;;;;;5.30;2.77;;;;;;;16.20;76.90;100732.99;2079082;85;30541;-79
2022/08/31 02:18:18;;;;;;;6.62;2.80;;;;;;;16.16;76.92;100730.10;2079652;85;27715;-78
2022/08/31 02:21:21;;;;;;;7.70;3.15;;;;;;;16.14;76.97;100736.56;2079565;84;29457;-81
2022/08/31 02:24:22;;;;;;;8.18;2.92;;;;;;;16.11;77.07;100733.59;2079531;85;31717;-79
2022/08/31 02:27:23;;;;;;;3.27;2.60;;;;;;;15.91;77.28;100712.79;2079410;84;33341;-79
2022/08/31 02:30:25;;;;;;;7.35;2.62;;;;;;;15.91;77.28;100712.79;2079579;85;29134;-82
2022/08/31 02:33:27;;;;;;;3.42;2.50;;;;;;;16.02;77.26;100735.06;2079721;84;27810;-78
2022/08/31 02:36:31;;;;;;;5.72;2.72;;;;;;;15.97;77.65;100735.84;2079173;85;28676;-84
2022/08/31 02:39:32;;;;;;;5.70;2.90;;;;;;;15.97;77.65;100735.84;2079596;85;31121;-69
2022/08/31 02:42:34;;;;;;;4.42;2.92;;;;;;;15.92;77.37;100732.09;2079160;85;32178;-82
2022/08/31 02:45:37;;;;;;;4.12;2.90;;;;;;;15.88;77.35;100736.45;2078851;85;29402;-78
2022/08/31 02:48:39;;;;;;;5.25;2.58;;;;;;;15.88;77.35;100736.45;2079481;85;27705;-78
2022/08/31 02:51:42;;;;;;;3.47;2.80;;;;;;;15.87;77.64;100733.36;2079276;85;28690;-77
2022/08/31 02:54:43;;;;;;;4.00;2.92;;;;;;;15.85;77.62;100731.20;2079543;85;31025;-80
2022/08/31 02:57:46;;;;;;;4.50;3.17;;;;;;;15.83;77.68;100734.02;2079170;85;55714;-80
2022/08/31 03:00:47;;;;;;;4.40;2.67;;;;;;;15.80;77.77;100727.45;2098696;83;29312;-81
2022/08/31 03:03:52;;;;;;;4.90;2.98;;;;;;;15.78;77.80;100729.39;2117411;83;28161;-75
2022/08/31 03:06:54;;;;;;;3.47;2.60;;;;;;;15.75;77.83;100720.12;2112848;84;29477;-82
2022/08/31 03:09:56;;;;;;;5.85;2.83;;;;;;;15.73;77.91;100722.94;2112690;84;32183;-73
2022/08/31 03:12:57;;;;;;;5.55;2.92;;;;;;;15.71;77.89;100728.92;2112676;83;33459;-83
2022/08/31 03:15:58;;;;;;;3.20;2.47;;;;;;;15.70;78.08;100730.39;2113151;84;30296;-75
2022/08/31 03:19:00;;;;;;;4.53;2.90;;;;;;;15.55;78.23;100706.56;2099539;83;27930;-83
2022/08/31 03:22:01;;;;;;;4.00;2.80;;;;;;;15.64;78.05;100727.10;2059889;86;29858;-83
2022/08/31 03:25:05;;;;;;;5.35;3.40;;;;;;;15.61;78.04;100728.64;2098791;84;31816;-83
2022/08/31 03:28:07;;;;;;;3.85;3.17;;;;;;;15.57;78.26;100723.55;2114543;84;32958;-84
2022/08/31 03:31:10;;;;;;;6.37;3.40;;;;;;;15.57;78.26;100723.55;2114236;83;30467;-84
2022/08/31 03:34:11;;;;;;;4.28;3.17;;;;;;;15.55;78.24;100725.00;2098877;84;27703;-76
2022/08/31 03:37:13;;;;;;;5.70;3.20;;;;;;;15.50;78.41;100735.22;2114329;83;28676;-77
2022/08/31 03:40:14;;;;;;;5.97;3.08;;;;;;;15.50;78.41;100735.22;2114419;83;31099;-76
2022/08/31 03:43:17;;;;;;;6.50;3.83;;;;;;;15.48;78.45;100729.05;2114334;84;33435;-76
2022/08/31 03:46:18;;;;;;;5.17;3.22;;;;;;;15.45;78.48;100737.34;2129070;82;29493;-76
2022/08/31 03:49:39;;;;;;;5.65;3.17;;;;;;;15.43;78.50;100734.74;2149005;82;27788;-78
2022/08/31 03:52:41;;;;;;;5.78;3.85;;;;;;;15.42;78.59;100737.06;2066152;86;28698;-76
2022/08/31 03:55:42;;;;;;;7.65;3.77;;;;;;;15.40;78.67;100731.34;2045662;87;32329;-72
2022/08/31 03:58:44;;;;;;;6.35;4.20;;;;;;;15.38;78.58;100735.50;2045943;87;34205;-74
2022/08/31 04:01:46;;;;;;;6.53;3.95;;;;;;;15.38;78.58;100735.50;2040043;87;30481;-69
2022/08/31 04:04:54;;;;;;;9.05;3.50;;;;;;;15.37;78.86;100735.12;2044703;87;27614;-69
2022/08/31 04:07:55;;;;;;;6.85;4.47;;;;;;;15.38;78.92;100738.20;2040272;87;29680;-70
2022/08/31 04:10:57;;;;;;;5.90;4.10;;;;;;;15.37;79.01;100735.12;2060243;85;31073;-69
2022/08/31 04:13:58;;;;;;;6.00;4.17;;;;;;;15.38;79.03;100736.86;2048997;86;33002;-69
2022/08/31 04:17:00;;;;;;;8.05;4.42;;;;;;;15.39;79.08;100743.14;2027398;86;29493;-70
2022/08/31 04:20:03;;;;;;;5.05;4.10;;;;;;;15.40;79.19;100738.09;2027397;87;27693;-70
2022/08/31 04:23:05;;;;;;;15.38;4.97;;;;;;;15.42;79.32;100737.06;2027190;87;28652;-69
2022/08/31 04:26:27;;;;;;;9.33;5.30;;;;;;;15.44;79.39;100731.55;2027312;87;31077;-72
2022/08/31 04:29:29;;;;;;;7.03;4.87;;;;;;;15.42;79.41;100726.72;2027143;86;33802;-73
2022/08/31 04:32:36;;;;;;;8.40;5.25;;;;;;;15.47;79.44;100742.16;2027134;87;30538;-72
2022/08/31 04:35:39;;;;;;;10.68;5.62;;;;;;;15.49;79.46;100738.88;2027010;87;28138;-76
2022/08/31 04:38:46;;;;;;;8.38;6.00;;;;;;;15.53;79.55;100744.95;2027722;87;28752;-77
2022/08/31 04:41:48;;;;;;;8.48;5.50;;;;;;;15.58;79.58;100742.84;2027106;87;31036;-77
2022/08/31 04:44:50;;;;;;;7.85;5.95;;;;;;;15.64;79.60;100744.66;2048704;86;33356;-77
2022/08/31 04:47:52;;;;;;;9.18;6.50;;;;;;;15.73;79.61;100754.47;2060582;86;29443;-78
2022/08/31 04:51:04;;;;;;;9.53;6.15;;;;;;;15.72;79.51;100739.27;2055696;84;27736;-77
2022/08/31 04:54:09;;;;;;;13.58;6.00;;;;;;;15.81;79.55;100748.11;2103293;84;29099;-77
2022/08/31 04:57:10;;;;;;;7.72;5.72;;;;;;;15.88;79.50;100754.02;2102455;84;32799;-79
2022/08/31 05:00:12;;;;;;;9.13;5.90;;;;;;;;;;2102841;84;34280;-77
2022/08/31 05:03:14;;;;;;;11.12;6.42;;;;;;;15.83;79.53;100738.08;2103158;84;29425;-78
2022/08/31 05:06:17;;;;;;;7.15;6.45;;;;;;;15.96;79.57;100758.45;2103062;84;28248;-78
2022/08/31 05:09:22;;;;;;;9.75;6.10;;;;;;;15.93;79.56;100737.03;2103176;84;30106;-78
2022/08/31 05:12:23;;;;;;;9.05;6.17;;;;;;;16.10;79.62;100761.11;2103197;84;31906;-80
2022/08/31 05:15:25;;;;;;;10.18;6.15;;;;;;;16.16;79.62;100770.66;2103443;83;32950;-77
2022/08/31 05:18:26;;;;;;;9.55;6.03;;;;;;;16.18;79.56;100776.83;2103181;84;29107;-77
2022/08/31 05:21:33;;;;;;;11.63;6.20;;;;;;;16.18;79.44;100771.42;2103080;83;27748;-79
2022/08/31 05:24:36;;;;;;;7.72;6.40;;;;;;;16.22;79.46;100779.69;2138447;83;28697;-78
2022/08/31 05:27:38;;;;;;;10.38;6.10;;;;;;;16.25;79.42;100777.29;2139352;83;31348;-78
2022/08/31 05:30:44;;;;;;;11.43;5.90;;;;;;;16.28;79.50;100777.56;2139120;83;34082;-77
2022/08/31 05:33:46;;;;;;;11.22;6.33;;;;;;;16.29;79.46;100774.77;2139337;83;29323;-76
2022/08/31 05:36:52;;;;;;;9.78;6.58;;;;;;;16.32;79.48;100775.05;2138991;83;27625;-76
2022/08/31 05:39:53;;;;;;;9.30;5.92;;;;;;;16.37;79.49;100778.32;2138814;83;29126;-77
2022/08/31 05:42:58;;;;;;;8.23;6.08;;;;;;;16.45;79.64;100784.57;2139318;83;31387;-77
2022/08/31 05:45:58;;;;;;;6.28;5.35;;;;;;;16.45;79.35;100786.77;2139271;83;33926;-77
2022/08/31 05:49:00;;;;;;;8.00;5.78;;;;;;;16.52;79.53;100788.58;2139317;83;29322;-77
2022/08/31 05:52:04;;;;;;;7.83;5.62;;;;;;;16.55;79.38;100797.84;2115165;83;28248;-77
2022/08/31 05:55:07;;;;;;;6.95;5.15;;;;;;;16.56;79.36;100801.79;2085594;84;28749;-81
2022/08/31 05:58:09;;;;;;;10.28;6.05;;;;;;;16.62;79.34;100801.00;2073172;85;31036;-79
2022/08/31 06:01:23;;;;;;;8.35;5.92;;;;;;;16.66;79.24;100799.34;2073200;85;34127;-77
2022/08/31 06:04:26;;;;;;;11.13;4.83;;;;;;;16.67;79.20;100805.12;2073391;85;30192;-77
2022/08/31 06:07:28;;;;;;;11.03;5.30;;;;;;;16.70;79.05;100817.11;2073402;85;27698;-78
2022/08/31 06:10:31;;;;;;;6.80;4.97;;;;;;;16.73;79.40;100817.88;2073207;85;28655;-75
2022/08/31 06:13:33;;;;;;;5.62;4.53;;;;;;;16.71;79.01;100814.78;2073329;85;31870;-76
2022/08/31 06:16:36;;;;;;;10.08;4.87;;;;;;;16.76;79.12;100819.02;2073610;85;33160;-76
2022/08/31 06:19:38;;;;;;;7.05;4.47;;;;;;;16.80;78.97;100822.77;2072912;85;31474;-76
2022/08/31 06:22:43;;;;;;;7.12;4.75;;;;;;;16.85;78.89;100827.39;2084542;84;27665;-74
2022/08/31 06:25:42;;;;;;;11.60;4.72;;;;;;;16.91;78.84;100834.69;2107717;84;29227;-72
2022/08/31 06:28:47;;;;;;;5.72;4.55;;;;;;;16.95;78.76;100830.37;2107570;84;32244;-72
2022/08/31 06:31:49;;;;;;;6.10;4.30;;;;;;;17.05;78.53;100828.38;2107701;84;32985;-69
2022/08/31 06:34:50;;;;;;;6.00;4.15;;;;;;;17.12;78.56;100835.97;2108323;84;29716;-74
2022/08/31 06:37:52;;;;;;;5.87;4.22;;;;;;;17.24;78.45;100838.80;2108282;84;27691;-74
2022/08/31 06:40:53;;;;;;;5.92;3.87;;;;;;;17.35;78.11;100848.42;2108073;84;28441;-78
2022/08/31 06:43:55;;;;;;;6.05;3.70;;;;;;;17.43;77.95;100850.09;2108061;84;31413;-75
2022/08/31 06:46:56;;;;;;;8.15;4.12;;;;;;;17.53;77.90;100854.88;2108339;84;33331;-77
2022/08/31 06:49:58;;;;;;;4.72;3.90;;;;;;;17.58;77.10;100851.34;2108195;84;29844;-76
2022/08/31 06:53:00;;;;;;;5.60;3.67;;;;;;;17.64;77.39;100852.27;2113252;83;27760;-77
2022/08/31 06:56:11;;;;;;;5.10;3.42;;;;;;;17.75;77.29;100851.52;2103269;84;28736;-76
2022/08/31 06:59:12;;;;;;;3.92;3.55;;;;;;;17.86;77.15;100849.40;2103182;84;31927;-77
2022/08/31 07:02:14;;;;;;;4.83;3.70;;;;;;;17.97;76.91;100854.91;2103211;84;34142;-75
2022/08/31 07:05:15;;;;;;;11.40;3.45;;;;;;;18.07;76.71;100855.99;2103211;84;31503;-74
2022/08/31 07:08:19;;;;;;;7.55;3.37;;;;;;;18.17;76.38;100854.84;2104032;84;27681;-75
2022/08/31 07:11:33;;;;;;;4.25;2.77;;;;;;;18.32;76.30;100852.86;2103610;84;28651;-72
2022/08/31 07:14:35;;;;;;;4.75;3.10;;;;;;;18.43;75.80;100856.61;2103407;84;31045;-76
2022/08/31 07:17:36;;;;;;;4.97;2.77;;;;;;;18.52;75.50;100861.38;2103698;84;34188;-77
2022/08/31 07:20:38;;;;;;;4.87;2.87;;;;;;;18.62;75.03;100858.81;2103369;84;30510;-76
2022/08/31 07:23:40;;;;;;;4.85;2.70;;;;;;;18.67;74.37;100865.66;2130116;83;27771;-76
2022/08/31 07:26:48;;;;;;;8.85;2.60;;;;;;;18.73;73.69;100863.44;2139407;82;29873;-75
2022/08/31 07:29:49;;;;;;;5.08;2.95;;;;;;;18.80;73.97;100861.50;2139408;83;31076;-76
2022/08/31 07:32:51;;;;;;;6.85;3.20;;;;;;;18.94;74.13;100856.42;2139592;83;33122;-76
2022/08/31 07:35:53;;;;;;;6.03;2.70;;;;;;;19.01;72.71;100860.05;2139542;82;30450;-76
2022/08/31 07:42:23;;;;;;;6.97;2.77;;;;;;;19.13;72.59;100863.17;2139172;83;28923;-76
2022/08/31 07:45:24;;;;;;;7.83;2.92;;;;;;;19.19;72.29;100863.19;2139467;82;31876;-76
2022/08/31 07:48:26;;;;;;;6.65;2.95;;;;;;;19.13;71.48;100860.45;2139450;82;33333;-76
2022/08/31 07:51:28;;;;;;;11.90;2.83;;;;;;;19.15;71.63;100865.28;2135612;82;30469;-76
2022/08/31 07:54:31;;;;;;;7.70;2.92;;;;;;;19.20;71.58;100875.27;2119122;83;27640;-75
2022/08/31 07:57:42;;;;;;;3.65;2.20;;;;;;;19.23;71.28;100878.27;2139129;83;29586;-78
2022/08/31 08:00:51;;;;;;;5.53;2.27;;;;;;;19.21;71.56;100879.73;2139481;83;31093;-71
2022/08/31 08:03:52;;;;;;;6.90;2.65;;;;;;;19.25;71.54;100875.80;2138716;83;33818;-79
2022/08/31 08:06:59;;;;;;;10.48;7.22;;;;;;;19.21;71.12;100876.16;2139768;83;29340;-79
2022/08/31 08:10:03;;;;;;;8.95;3.17;;;;;;;19.15;71.13;100881.58;2139667;83;27665;-76
2022/08/31 08:13:05;;;;;;;8.90;3.12;;;;;;;19.12;70.96;100885.38;2140150;83;28115;-75
2022/08/31 08:16:06;;;;;;;10.43;3.77;;;;;;;19.09;71.25;100889.70;2139392;83;32215;-77
2022/08/31 08:19:08;;;;;;;7.05;5.00;;;;;;;19.03;71.20;100885.23;2139490;83;34274;-76
2022/08/31 08:22:09;;;;;;;6.30;3.17;;;;;;;18.95;70.99;100888.50;2127893;83;30573;-76
2022/08/31 08:25:12;;;;;;;3.25;2.85;;;;;;;18.90;70.99;100890.69;2104019;84;27625;-75
2022/08/31 08:28:19;;;;;;;5.95;2.80;;;;;;;18.81;71.12;100892.25;2104011;84;28659;-77
2022/08/31 08:31:24;;;;;;;6.60;3.12;;;;;;;18.77;71.10;100897.52;2103815;84;31424;-75
2022/08/31 08:34:26;;;;;;;16.60;8.13;;;;;;;18.74;71.21;100892.31;2103779;84;33072;-76
2022/08/31 08:37:27;;;;;;;9.85;5.50;;;;;;;18.75;71.59;100903.55;2103540;83;29400;-73
2022/08/31 08:40:40;;;;;;;7.08;3.92;;;;;;;18.79;71.67;100909.98;2103987;84;27692;-71
2022/08/31 08:43:44;;;;;;;4.55;2.90;;;;;;;18.87;71.63;100910.77;2103432;84;28686;-76
2022/08/31 08:46:51;;;;;;;5.97;3.35;;;;;;;18.91;71.31;100907.36;2103740;84;32175;-76
2022/08/31 08:49:56;;;;;;;8.60;3.42;;;;;;;18.96;71.33;100905.17;2103585;84;33079;-76
2022/08/31 08:53:02;;;;;;;6.05;3.40;;;;;;;18.98;71.07;100901.37;2137483;82;36660;-74
2022/08/31 08:56:22;;;;;;;5.50;3.00;;;;;;;19.10;71.19;100905.50;2164350;82;27710;-73
2022/08/31 08:59:27;;;;;;;7.58;3.12;;;;;;;19.22;71.15;100903.70;2057989;85;28729;-74
2022/08/31 09:02:41;;;;;;;;;;;;;;;19.36;70.77;100910.80;2055956;86;31036;-73
2022/08/31 09:06:29;;;;;;;7.20;2.83;;;;;;;19.49;70.14;100909.33;2055717;86;33012;-73
2022/08/31 09:09:48;;;;;;;4.95;3.00;;;;;;;19.67;70.73;100906.53;2064513;86;30151;-76
2022/08/31 09:13:13;;;;;;;7.50;2.62;;;;;;;19.87;69.97;100908.21;2064725;86;27617;-73
2022/08/31 09:16:43;;;;;;;4.95;2.30;;;;;;;20.04;69.31;100902.30;2064519;86;28735;-75
2022/08/31 09:19:58;;;;;;;6.50;2.50;;;;;;;20.22;69.38;100901.80;2064895;85;30817;-72
2022/08/31 09:23:05;;;;;;;6.87;3.20;;;;;;;20.48;69.31;100898.80;2040446;85;33015;-74
2022/08/31 09:26:04;;;;;;;6.90;2.60;;;;;;;20.72;68.83;100896.41;2029085;87;29528;-71
2022/08/31 09:29:12;;;;;;;8.05;2.58;;;;;;;20.88;68.03;100891.44;2029575;87;27621;-71
2022/08/31 09:32:15;;;;;;;4.12;2.40;;;;;;;21.08;67.95;100891.11;2028744;87;28638;-72
2022/08/31 09:35:43;;;;;;;5.53;2.40;;;;;;;21.24;67.49;100883.88;2029299;87;32106;-73
2022/08/31 09:38:45;;;;;;;3.92;2.00;;;;;;;21.51;67.56;100890.65;2028389;87;33311;-74
2022/08/31 09:41:48;;;;;;;4.00;2.60;;;;;;;21.66;65.75;100890.34;2029567;87;29345;-73
2022/08/31 09:44:50;;;;;;;6.85;2.87;;;;;;;21.82;66.61;100883.05;2029290;87;27698;-73
2022/08/31 09:47:54;;;;;;;8.00;2.25;;;;;;;21.95;65.65;100873.26;2029485;87;28668;-74
2022/08/31 09:51:02;;;;;;;6.58;3.20;;;;;;;22.11;65.30;100878.23;2030307;86;31093;-74
2022/08/31 09:57:55;;;;;;;6.28;2.20;;;;;;;22.53;63.59;100877.24;2027552;87;30210;-74
2022/08/31 10:00:56;;;;;;;4.70;1.90;;;;;;;22.73;64.17;100868.57;2016766;88;27722;-73
2022/08/31 10:04:18;;;;;;;2.95;1.80;;;;;;;23.07;64.24;100868.16;2020194;88;28449;-73
2022/08/31 10:07:52;;;;;;;5.33;2.25;;;;;;;23.32;63.54;100868.63;2020482;87;31854;-75
2022/08/31 10:11:00;;;;;;;4.58;2.42;;;;;;;23.54;62.66;100866.06;1909109;92;33036;-74
2022/08/31 10:14:25;;;;;;;3.00;1.82;;;;;;;23.73;61.92;100867.03;1908413;93;29510;-74
2022/08/31 10:17:44;;;;;;;4.40;2.22;;;;;;;23.84;61.74;100861.37;1908717;93;27823;-73
2022/08/31 10:21:06;;;;;;;1.98;1.57;;;;;;;23.79;60.47;100861.82;1907298;93;29562;-72
2022/08/31 10:24:31;;;;;;;6.50;2.08;;;;;;;23.90;59.93;100852.58;1893612;93;31655;-77
2022/08/31 10:27:37;;;;;;;4.72;1.90;;;;;;;23.99;59.70;100854.07;1908372;93;33867;-73
2022/08/31 10:31:19;;;;;;;3.65;1.98;;;;;;;24.07;59.66;100850.09;1908818;93;31808;-77
2022/08/31 10:38:24;;;;;;;4.70;2.08;;;;;;;24.36;58.14;100843.06;1908814;93;28365;-77
2022/08/31 10:41:31;;;;;;;5.87;2.27;;;;;;;24.33;58.36;100836.52;1907902;93;32427;-79
2022/08/31 10:44:51;;;;;;;3.08;1.92;;;;;;;24.17;57.57;100840.42;1908844;93;33325;-76
2022/08/31 10:47:54;;;;;;;2.92;1.82;;;;;;;23.86;57.48;100833.36;1999263;86;29438;-78
2022/08/31 10:51:31;;;;;;;3.27;1.65;;;;;;;23.59;57.68;100845.95;2053854;86;27668;-79
2022/08/31 10:55:11;;;;;;;2.37;1.20;;;;;;;23.25;56.61;100849.18;1983969;89;27948;-78
2022/08/31 10:58:40;;;;;;;1.77;1.32;;;;;;;22.85;57.19;100852.40;1989503;89;32527;-77
2022/08/31 11:02:02;;;;;;;2.65;1.47;;;;;;;22.58;57.13;100847.14;1980682;89;33049;-78
2022/08/31 11:05:36;;;;;;;2.20;1.80;;;;;;;22.37;57.91;100841.75;1989844;89;29516;-79
2022/08/31 11:08:51;;;;;;;5.53;1.70;;;;;;;22.25;57.68;100838.78;1981135;89;28021;-75
2022/08/31 11:12:06;;;;;;;1.67;1.45;;;;;;;22.14;58.19;100844.69;1989791;89;29712;-75
2022/08/31 11:15:21;;;;;;;4.03;1.82;;;;;;;22.14;58.08;100839.23;1980815;89;31461;-79
2022/08/31 11:18:34;;;;;;;3.50;1.60;;;;;;;22.16;58.07;100837.75;1989518;89;34089;-77
2022/08/31 11:22:15;;;;;;;3.22;1.70;;;;;;;22.20;57.83;100833.72;1980000;89;30651;-77
2022/08/31 11:25:54;;;;;;;1.77;1.40;;;;;;;22.29;57.60;100832.90;2013420;86;28331;-78
2022/08/31 11:29:11;;;;;;;5.12;1.67;;;;;;;22.42;57.64;100837.27;2090054;85;29856;-79
2022/08/31 11:32:26;;;;;;;3.67;1.27;;;;;;;22.55;57.73;100828.81;2106456;84;31042;-77
2022/08/31 11:36:04;;;;;;;4.37;1.60;;;;;;;22.64;56.58;100827.10;2108702;84;34029;-78
2022/08/31 11:39:10;;;;;;;2.55;1.17;;;;;;;22.73;56.70;100825.75;2108344;84;30250;-79
2022/08/31 11:42:32;;;;;;;2.60;1.27;;;;;;;22.85;53.45;100829.70;2108785;84;27640;-78
2022/08/31 11:45:36;;;;;;;2.27;1.12;;;;;;;22.78;53.89;100828.05;2063665;86;30008;-80
2022/08/31 11:48:57;;;;;;;4.90;1.10;;;;;;;22.82;54.22;100830.86;2064188;86;31199;-80
2022/08/31 11:51:59;;;;;;;3.60;1.25;;;;;;;22.96;52.43;100825.44;2064332;86;32948;-80
2022/08/31 11:55:10;;;;;;;2.33;1.20;;;;;;;22.93;51.34;100819.41;2072561;84;29998;-79
2022/08/31 11:58:32;;;;;;;2.67;1.20;;;;;;;22.82;52.04;100819.93;2063031;84;27790;-80
2022/08/31 12:01:33;;;;;;;3.58;1.40;;;;;;;22.85;51.97;100815.52;2063049;86;28498;-81
2022/08/31 12:04:52;;;;;;;2.77;2.15;;;;;;;22.84;51.97;100822.50;2063789;86;31899;-80
2022/08/31 12:07:54;;;;;;;2.02;1.20;;;;;;;22.93;52.67;100816.16;2063445;86;33334;-79
2022/08/31 12:11:09;;;;;;;1.70;1.27;;;;;;;23.01;51.59;100808.12;2063840;86;29719;-78
2022/08/31 12:14:33;;;;;;;2.75;1.40;;;;;;;23.02;50.53;100812.58;2063880;86;33225;-80
2022/08/31 12:17:59;;;;;;;1.85;1.52;;;;;;;23.02;51.95;100807.60;2063237;86;29431;-78
2022/08/31 12:25:12;;;;;;;2.10;1.10;;;;;;;23.20;50.76;100811.84;2112665;84;34154;-79
2022/08/31 12:28:48;;;;;;;2.55;1.50;;;;;;;23.18;50.74;100811.97;2103033;84;29738;-75
2022/08/31 12:32:30;;;;;;;3.42;1.50;;;;;;;23.20;50.09;100808.62;2075592;85;28019;-77
2022/08/31 12:35:32;;;;;;;2.72;1.30;;;;;;;23.17;49.97;100800.67;2111530;84;28708;-75
2022/08/31 12:38:34;;;;;;;2.10;1.15;;;;;;;23.28;50.31;100797.47;2096796;84;32202;-76
2022/08/31 12:41:42;;;;;;;1.90;1.30;;;;;;;23.30;49.17;100789.98;2107176;84;32987;-77
2022/08/31 12:44:49;;;;;;;2.27;1.32;;;;;;;23.35;48.05;100794.48;2110430;84;29341;-76
2022/08/31 12:47:58;;;;;;;1.90;1.30;;;;;;;23.39;48.80;100782.77;2096919;83;27203;-79
2022/08/31 12:51:36;;;;;;;5.25;1.52;;;;;;;23.57;49.07;100787.83;2097449;84;28754;-81
2022/08/31 12:55:00;;;;;;;2.42;1.20;;;;;;;23.69;49.05;100795.31;2077455;84;31270;-79
2022/08/31 12:58:35;;;;;;;2.12;1.25;;;;;;;23.76;48.82;100786.00;2094092;84;34062;-79
2022/08/31 13:01:43;;;;;;;;;;;;;;;23.88;47.47;100786.19;2097977;84;29708;-75
2022/08/31 13:04:45;;;;;;;2.55;1.17;;;;;;;23.87;47.22;100768.53;2096383;84;27709;-79
2022/08/31 13:07:47;;;;;;;2.70;1.40;;;;;;;23.82;47.32;100778.08;2072870;85;29036;-79
2022/08/31 13:10:48;;;;;;;1.40;1.10;;;;;;;23.74;45.96;100778.48;2104415;83;31344;-78
2022/08/31 13:13:53;;;;;;;2.30;1.00;;;;;;;23.69;46.71;100773.43;2101343;84;33022;-77
2022/08/31 13:17:08;;;;;;;2.50;1.30;;;;;;;23.74;46.76;100771.12;2116286;83;29388;-73
2022/08/31 13:20:14;;;;;;;1.82;1.20;;;;;;;23.86;47.51;100760.84;2111511;84;27709;-78
2022/08/31 13:23:21;;;;;;;1.27;1.17;;;;;;;23.87;44.82;100773.52;2085508;84;28686;-77
2022/08/31 13:26:24;;;;;;;1.60;1.30;;;;;;;23.82;46.06;100765.77;2116727;84;30997;-79
2022/08/31 13:29:25;;;;;;;3.35;1.00;;;;;;;23.81;44.04;100762.67;2116616;84;33052;-79
2022/08/31 13:32:32;;;;;;;3.52;1.20;;;;;;;23.70;44.89;100760.63;2088545;84;29333;-78
2022/08/31 13:35:38;;;;;;;2.05;1.12;;;;;;;23.60;43.90;100758.78;2116808;84;27693;-78
2022/08/31 13:38:52;;;;;;;2.30;1.10;;;;;;;23.56;45.53;100759.23;2088922;84;28655;-77
2022/08/31 13:42:04;;;;;;;1.67;1.25;;;;;;;23.48;45.04;100762.23;2116718;84;30472;-80
2022/08/31 13:45:26;;;;;;;2.52;1.17;;;;;;;23.39;43.15;100771.31;2116736;83;33388;-77
2022/08/31 13:48:33;;;;;;;2.35;1.30;;;;;;;23.24;43.61;100756.39;2037145;86;30530;-76
2022/08/31 13:51:40;;;;;;;1.80;1.42;;;;;;;23.10;43.93;100766.76;2027005;87;27812;-77
2022/08/31 13:54:41;;;;;;;1.67;1.17;;;;;;;23.00;44.63;100760.45;2018601;87;28651;-78
2022/08/31 13:57:58;;;;;;;1.92;1.50;;;;;;;22.95;45.36;100760.02;2036022;87;31200;-78
2022/08/31 14:01:25;;;;;;;1.67;1.30;;;;;;;22.95;45.54;100759.50;2035705;87;33486;-78
2022/08/31 14:04:59;;;;;;;1.50;1.37;;;;;;;22.95;45.17;100758.14;2036098;87;29347;-81
2022/08/31 14:07:56;;;;;;;1.72;1.20;;;;;;;22.95;44.81;100760.02;2005128;88;27720;-80
2022/08/31 14:10:57;;;;;;;;;;;;;;;22.84;44.42;100746.86;2006993;88;30793;-78
2022/08/31 14:14:07;;;;;;;1.10;0.90;;;;;;;22.76;44.75;100744.01;2036050;87;28374;-78
2022/08/31 14:17:14;;;;;;;1.45;1.00;;;;;;;22.74;45.40;100749.63;2035503;87;33873;-76
2022/08/31 14:20:36;;;;;;;3.10;1.10;;;;;;;22.73;45.11;100746.53;2035760;87;29383;-74
2022/08/31 14:23:43;;;;;;;2.77;1.12;;;;;;;22.79;45.36;100751.04;1931347;90;27934;-72
2022/08/31 14:26:45;;;;;;;1.87;1.30;;;;;;;22.82;45.25;100757.09;1933537;92;29894;-75
2022/08/31 14:29:47;;;;;;;1.77;1.10;;;;;;;22.76;44.89;100757.66;1934014;92;30492;-76
2022/08/31 14:32:49;;;;;;;1.57;1.05;;;;;;;22.68;45.39;100754.78;1934325;92;34138;-76
2022/08/31 14:35:53;;;;;;;3.15;0.90;;;;;;;22.67;45.33;100751.20;1934095;91;29575;-75
2022/08/31 14:38:53;;;;;;;1.92;1.25;;;;;;;22.66;45.41;100749.99;1934467;91;27806;-77
2022/08/31 14:42:02;;;;;;;3.33;1.10;;;;;;;22.69;45.56;100756.02;1933997;90;29935;-74
2022/08/31 14:45:19;;;;;;;3.33;1.22;;;;;;;22.65;44.90;100754.58;1934220;90;31450;-78
2022/08/31 14:48:20;;;;;;;1.92;1.20;;;;;;;22.60;45.58;100755.02;1934465;92;33581;-80
2022/08/31 14:51:23;;;;;;;1.12;1.00;;;;;;;22.59;45.67;100757.87;1943254;90;29717;-78
2022/08/31 14:54:30;;;;;;;3.45;1.30;;;;;;;22.64;45.48;100759.67;1998255;88;27758;-78